createdAt,value
2022-11-27T00:00:37.000Z,16000.0
2022-11-27T00:01:37.000Z,16000.0
2022-11-27T00:02:36.000Z,16000.0
2022-11-27T00:03:37.000Z,16000.0
2022-11-27T00:04:37.000Z,16000.0
2022-11-27T00:05:37.000Z,16000.0
2022-11-27T00:06:37.000Z,16000.0
2022-11-27T00:07:37.000Z,16000.0
2022-11-27T00:08:37.000Z,16000.0
2022-11-27T00:09:37.000Z,16000.0
2022-11-27T00:10:36.000Z,16000.0
2022-11-27T00:11:37.000Z,16000.0
2022-11-27T00:12:37.000Z,16000.0
2022-11-27T00:13:37.000Z,16000.0
2022-11-27T00:14:37.000Z,16000.0
2022-11-27T00:15:36.000Z,16000.0
2022-11-27T00:16:37.000Z,16000.0
2022-11-27T00:17:37.000Z,16000.0
2022-11-27T00:18:36.000Z,16000.0
2022-11-27T00:19:37.000Z,16000.0
2022-11-27T00:20:37.000Z,16000.0
2022-11-27T00:21:37.000Z,16000.0
2022-11-27T00:22:37.000Z,16000.0
2022-11-27T00:23:36.000Z,16000.0
2022-11-27T00:24:37.000Z,16000.0
2022-11-27T00:25:37.000Z,16000.0
2022-11-27T00:26:37.000Z,16000.0
2022-11-27T00:27:37.000Z,16000.0
2022-11-27T00:28:38.000Z,16000.0
2022-11-27T00:29:37.000Z,16000.0
2022-11-27T00:30:37.000Z,16000.0
2022-11-27T00:31:36.000Z,16000.0
2022-11-27T00:32:37.000Z,16000.0
2022-11-27T00:33:37.000Z,16000.0
2022-11-27T00:34:37.000Z,16000.0
2022-11-27T00:35:37.000Z,16000.0
2022-11-27T00:36:36.000Z,16000.0
2022-11-27T00:37:37.000Z,16000.0
2022-11-27T00:38:37.000Z,16000.0
2022-11-27T00:39:37.000Z,16000.0
2022-11-27T00:40:37.000Z,16000.0
2022-11-27T00:41:36.000Z,16000.0
2022-11-27T00:42:37.000Z,16000.0
2022-11-27T00:43:37.000Z,16000.0
2022-11-27T00:44:36.000Z,16000.0
2022-11-27T00:45:37.000Z,16000.0
2022-11-27T00:46:37.000Z,16000.0
2022-11-27T00:47:37.000Z,16000.0
2022-11-27T00:48:37.000Z,16000.0
2022-11-27T00:49:36.000Z,16000.0
2022-11-27T00:50:37.000Z,16000.0
2022-11-27T00:51:37.000Z,16000.0
2022-11-27T00:52:36.000Z,16000.0
2022-11-27T00:53:37.000Z,16000.0
2022-11-27T00:54:37.000Z,16000.0
2022-11-27T00:55:36.000Z,16000.0
2022-11-27T00:56:37.000Z,16000.0
2022-11-27T00:57:37.000Z,16000.0
2022-11-27T00:58:37.000Z,16000.0
2022-11-27T00:59:37.000Z,16000.0
2022-11-27T01:00:36.000Z,16000.0
2022-11-27T01:01:37.000Z,16000.0
2022-11-27T01:02:37.000Z,16000.0
2022-11-27T01:03:36.000Z,16000.0
2022-11-27T01:04:37.000Z,16000.0
2022-11-27T01:05:38.000Z,16000.0
2022-11-27T01:06:37.000Z,16000.0
2022-11-27T01:07:37.000Z,16000.0
2022-11-27T01:08:36.000Z,16000.0
2022-11-27T01:09:37.000Z,16000.0
2022-11-27T01:10:37.000Z,16000.0
2022-11-27T01:11:37.000Z,16000.0
2022-11-27T01:12:37.000Z,16000.0
2022-11-27T01:13:36.000Z,16000.0
2022-11-27T01:14:37.000Z,16000.0
2022-11-27T01:15:37.000Z,16000.0
2022-11-27T01:16:37.000Z,16000.0
2022-11-27T01:17:37.000Z,16000.0
2022-11-27T01:18:37.000Z,16000.0
2022-11-27T01:19:37.000Z,16000.0
2022-11-27T01:20:37.000Z,16000.0
2022-11-27T01:21:36.000Z,16000.0
2022-11-27T01:22:37.000Z,16000.0
2022-11-27T01:23:37.000Z,16000.0
2022-11-27T01:24:37.000Z,16000.0
2022-11-27T01:25:37.000Z,16000.0
2022-11-27T01:26:36.000Z,16000.0
2022-11-27T01:27:37.000Z,16000.0
2022-11-27T01:28:37.000Z,16000.0
2022-11-27T01:29:36.000Z,16000.0
2022-11-27T01:30:37.000Z,16000.0
2022-11-27T01:31:37.000Z,16000.0
2022-11-27T01:32:37.000Z,16000.0
2022-11-27T01:33:37.000Z,16000.0
2022-11-27T01:34:36.000Z,16000.0
2022-11-27T01:35:37.000Z,16000.0
2022-11-27T01:36:37.000Z,16000.0
2022-11-27T01:37:37.000Z,16000.0
2022-11-27T01:38:37.000Z,16000.0
2022-11-27T01:39:38.000Z,16000.0
2022-11-27T01:40:37.000Z,16000.0
2022-11-27T01:41:37.000Z,16000.0
2022-11-27T01:42:36.000Z,16000.0
2022-11-27T01:43:37.000Z,16000.0
2022-11-27T01:44:37.000Z,16000.0
2022-11-27T01:45:37.000Z,16000.0
2022-11-27T01:46:37.000Z,16000.0
2022-11-27T01:47:36.000Z,16000.0
2022-11-27T01:48:37.000Z,16000.0
2022-11-27T01:49:37.000Z,16000.0
2022-11-27T01:50:37.000Z,16000.0
2022-11-27T01:51:37.000Z,16000.0
2022-11-27T01:52:37.000Z,16000.0
2022-11-27T01:53:36.000Z,16000.0
2022-11-27T01:54:37.000Z,16000.0
2022-11-27T01:55:37.000Z,16000.0
2022-11-27T01:56:37.000Z,16000.0
2022-11-27T01:57:37.000Z,16000.0
2022-11-27T01:58:36.000Z,16000.0
2022-11-27T01:59:37.000Z,16000.0
2022-11-27T02:00:37.000Z,16000.0
2022-11-27T02:01:37.000Z,16000.0
2022-11-27T02:02:37.000Z,16000.0
2022-11-27T02:03:36.000Z,16000.0
2022-11-27T02:04:37.000Z,16000.0
2022-11-27T02:05:37.000Z,16000.0
2022-11-27T02:06:36.000Z,16000.0
2022-11-27T02:07:37.000Z,16000.0
2022-11-27T02:08:37.000Z,16000.0
2022-11-27T02:09:37.000Z,16000.0
2022-11-27T02:10:37.000Z,16000.0
2022-11-27T02:11:36.000Z,16000.0
2022-11-27T02:12:37.000Z,16000.0
2022-11-27T02:13:37.000Z,16000.0
2022-11-27T02:14:37.000Z,16000.0
2022-11-27T02:15:37.000Z,16000.0
2022-11-27T02:16:38.000Z,16000.0
2022-11-27T02:17:37.000Z,16000.0
2022-11-27T02:18:37.000Z,16000.0
2022-11-27T02:19:36.000Z,16000.0
2022-11-27T02:20:37.000Z,16000.0
2022-11-27T02:21:37.000Z,16000.0
2022-11-27T02:22:37.000Z,16000.0
2022-11-27T02:23:37.000Z,16000.0
2022-11-27T02:24:36.000Z,16000.0
2022-11-27T02:25:37.000Z,16000.0
2022-11-27T02:26:37.000Z,16000.0
2022-11-27T02:27:37.000Z,16000.0
2022-11-27T02:28:37.000Z,16000.0
2022-11-27T02:29:38.000Z,16000.0
2022-11-27T02:30:37.000Z,16000.0
2022-11-27T02:31:37.000Z,16000.0
2022-11-27T02:32:36.000Z,16000.0
2022-11-27T02:33:37.000Z,16000.0
2022-11-27T02:34:37.000Z,15620.0
2022-11-27T02:35:37.000Z,15369.0
2022-11-27T02:36:37.000Z,16000.0
2022-11-27T02:37:36.000Z,16000.0
2022-11-27T02:38:37.000Z,16000.0
2022-11-27T02:39:37.000Z,16000.0
2022-11-27T02:40:37.000Z,16000.0
2022-11-27T02:41:37.000Z,16000.0
2022-11-27T02:42:37.000Z,16000.0
2022-11-27T02:43:37.000Z,16000.0
2022-11-27T02:44:37.000Z,16000.0
2022-11-27T02:45:36.000Z,16000.0
2022-11-27T02:46:37.000Z,16000.0
2022-11-27T02:47:37.000Z,16000.0
2022-11-27T02:48:37.000Z,16000.0
2022-11-27T02:49:37.000Z,16000.0
2022-11-27T02:50:36.000Z,16000.0
2022-11-27T02:51:37.000Z,16000.0
2022-11-27T02:52:37.000Z,16000.0
2022-11-27T02:53:38.000Z,16000.0
2022-11-27T02:54:37.000Z,16000.0
2022-11-27T02:55:37.000Z,16000.0
2022-11-27T02:56:36.000Z,16000.0
2022-11-27T02:57:37.000Z,16000.0
2022-11-27T02:58:37.000Z,16000.0
2022-11-27T02:59:37.000Z,16000.0
2022-11-27T03:00:37.000Z,16000.0
2022-11-27T03:01:36.000Z,16000.0
2022-11-27T03:02:37.000Z,16000.0
2022-11-27T03:03:37.000Z,16000.0
2022-11-27T03:04:36.000Z,16000.0
2022-11-27T03:05:37.000Z,16000.0
2022-11-27T03:06:38.000Z,15293.0
2022-11-27T03:07:37.000Z,14949.0
2022-11-27T03:08:37.000Z,13906.0
2022-11-27T03:09:36.000Z,13669.0
2022-11-27T03:10:37.000Z,13421.0
2022-11-27T03:11:37.000Z,13851.0
2022-11-27T03:12:37.000Z,14267.0
2022-11-27T03:13:37.000Z,14079.0
2022-11-27T03:14:36.000Z,14880.0
2022-11-27T03:15:37.000Z,15220.0
2022-11-27T03:16:37.000Z,15767.0
2022-11-27T03:17:37.000Z,14208.0
2022-11-27T03:18:37.000Z,14526.0
2022-11-27T03:19:37.000Z,13839.0
2022-11-27T03:20:37.000Z,12874.0
2022-11-27T03:21:37.000Z,13439.0
2022-11-27T03:22:36.000Z,14534.0
2022-11-27T03:23:37.000Z,16000.0
2022-11-27T03:24:37.000Z,16000.0
2022-11-27T03:25:37.000Z,16000.0
2022-11-27T03:26:37.000Z,16000.0
2022-11-27T03:27:36.000Z,16000.0
2022-11-27T03:28:37.000Z,16000.0
2022-11-27T03:29:37.000Z,16000.0
2022-11-27T03:30:36.000Z,16000.0
2022-11-27T03:31:37.000Z,16000.0
2022-11-27T03:32:37.000Z,16000.0
2022-11-27T03:33:37.000Z,16000.0
2022-11-27T03:34:37.000Z,16000.0
2022-11-27T03:35:36.000Z,16000.0
2022-11-27T03:36:37.000Z,16000.0
2022-11-27T03:37:37.000Z,16000.0
2022-11-27T03:38:37.000Z,16000.0
2022-11-27T03:39:37.000Z,16000.0
2022-11-27T03:40:38.000Z,16000.0
2022-11-27T03:41:37.000Z,16000.0
2022-11-27T03:42:37.000Z,16000.0
2022-11-27T03:43:36.000Z,16000.0
2022-11-27T03:44:37.000Z,16000.0
2022-11-27T03:45:37.000Z,16000.0
2022-11-27T03:46:37.000Z,16000.0
2022-11-27T03:47:37.000Z,16000.0
2022-11-27T03:48:36.000Z,16000.0
2022-11-27T03:49:37.000Z,16000.0
2022-11-27T03:50:37.000Z,16000.0
2022-11-27T03:51:36.000Z,16000.0
2022-11-27T03:52:37.000Z,16000.0
2022-11-27T03:53:37.000Z,16000.0
2022-11-27T03:54:37.000Z,16000.0
2022-11-27T03:55:37.000Z,16000.0
2022-11-27T03:56:38.000Z,16000.0
2022-11-27T03:57:37.000Z,16000.0
2022-11-27T03:58:37.000Z,16000.0
2022-11-27T03:59:36.000Z,16000.0
2022-11-27T04:00:37.000Z,16000.0
2022-11-27T04:01:37.000Z,16000.0
2022-11-27T04:02:37.000Z,16000.0
2022-11-27T04:03:37.000Z,16000.0
2022-11-27T04:04:36.000Z,16000.0
2022-11-27T04:05:37.000Z,16000.0
2022-11-27T04:06:37.000Z,16000.0
2022-11-27T04:07:36.000Z,16000.0
2022-11-27T04:08:37.000Z,16000.0
2022-11-27T04:09:37.000Z,16000.0
2022-11-27T04:10:37.000Z,16000.0
2022-11-27T04:11:37.000Z,16000.0
2022-11-27T04:12:36.000Z,16000.0
2022-11-27T04:13:37.000Z,16000.0
2022-11-27T04:14:37.000Z,16000.0
2022-11-27T04:15:37.000Z,16000.0
2022-11-27T04:16:37.000Z,16000.0
2022-11-27T04:17:38.000Z,16000.0
2022-11-27T04:18:37.000Z,15288.0
2022-11-27T04:19:37.000Z,15604.0
2022-11-27T04:20:36.000Z,15590.0
2022-11-27T04:21:37.000Z,15092.0
2022-11-27T04:22:37.000Z,14310.0
2022-11-27T04:23:37.000Z,15589.0
2022-11-27T04:24:37.000Z,14654.0
2022-11-27T04:25:36.000Z,13598.0
2022-11-27T04:26:37.000Z,13811.0
2022-11-27T04:27:37.000Z,14591.0
2022-11-27T04:28:37.000Z,16000.0
2022-11-27T04:29:37.000Z,15880.0
2022-11-27T04:30:38.000Z,15508.0
2022-11-27T04:31:37.000Z,14369.0
2022-11-27T04:32:37.000Z,16000.0
2022-11-27T04:33:36.000Z,14505.0
2022-11-27T04:34:37.000Z,13877.0
2022-11-27T04:35:37.000Z,14461.0
2022-11-27T04:36:37.000Z,13605.0
2022-11-27T04:37:37.000Z,14108.0
2022-11-27T04:38:36.000Z,16000.0
2022-11-27T04:39:37.000Z,16000.0
2022-11-27T04:40:37.000Z,16000.0
2022-11-27T04:41:37.000Z,16000.0
2022-11-27T04:42:37.000Z,15322.0
2022-11-27T04:43:37.000Z,14071.0
2022-11-27T04:44:37.000Z,13351.0
2022-11-27T04:45:37.000Z,13086.0
2022-11-27T04:46:36.000Z,14152.0
2022-11-27T04:47:37.000Z,12845.0
2022-11-27T04:48:37.000Z,12939.0
2022-11-27T04:49:37.000Z,13290.0
2022-11-27T04:50:37.000Z,12649.0
2022-11-27T04:51:37.000Z,12395.0
2022-11-27T04:52:37.000Z,11501.0
2022-11-27T04:53:37.000Z,11280.0
2022-11-27T04:54:38.000Z,10086.0
2022-11-27T04:55:37.000Z,10231.0
2022-11-27T04:56:37.000Z,10553.0
2022-11-27T04:57:36.000Z,9906.0
2022-11-27T04:58:37.000Z,9785.0
2022-11-27T04:59:37.000Z,8995.0
2022-11-27T05:00:37.000Z,9548.0
2022-11-27T05:01:37.000Z,8956.0
2022-11-27T05:02:38.000Z,8548.0
2022-11-27T05:03:37.000Z,9223.0
2022-11-27T05:04:37.000Z,9467.0
2022-11-27T05:05:36.000Z,9565.0
2022-11-27T05:06:37.000Z,10068.0
2022-11-27T05:07:37.000Z,8997.0
2022-11-27T05:08:37.000Z,9862.0
2022-11-27T05:09:37.000Z,10639.0
2022-11-27T05:10:36.000Z,11058.0
2022-11-27T05:11:37.000Z,11566.0
2022-11-27T05:12:37.000Z,10900.0
2022-11-27T05:13:37.000Z,10168.0
2022-11-27T05:14:37.000Z,10045.0
2022-11-27T05:15:38.000Z,9851.0
2022-11-27T05:16:37.000Z,10585.0
2022-11-27T05:17:37.000Z,9587.0
2022-11-27T05:18:36.000Z,8909.0
2022-11-27T05:19:37.000Z,9046.0
2022-11-27T05:20:37.000Z,9056.0
2022-11-27T05:21:37.000Z,9489.0
2022-11-27T05:22:37.000Z,9820.0
2022-11-27T05:23:36.000Z,9678.0
2022-11-27T05:24:37.000Z,9175.0
2022-11-27T05:25:37.000Z,9272.0
2022-11-27T05:26:37.000Z,9945.0
2022-11-27T05:27:37.000Z,10044.0
2022-11-27T05:28:38.000Z,10181.0
2022-11-27T05:29:37.000Z,10382.0
2022-11-27T05:30:37.000Z,9913.0
2022-11-27T05:31:36.000Z,9999.0
2022-11-27T05:32:37.000Z,9869.0
2022-11-27T05:33:37.000Z,10921.0
2022-11-27T05:34:37.000Z,11243.0
2022-11-27T05:35:37.000Z,12053.0
2022-11-27T05:36:36.000Z,13902.0
2022-11-27T05:37:37.000Z,16000.0
2022-11-27T05:38:37.000Z,15984.0
2022-11-27T05:39:37.000Z,15698.0
2022-11-27T05:40:37.000Z,14977.0
2022-11-27T05:41:38.000Z,16000.0
2022-11-27T05:42:37.000Z,14198.0
2022-11-27T05:43:37.000Z,15175.0
2022-11-27T05:44:36.000Z,14276.0
2022-11-27T05:45:37.000Z,14277.0
2022-11-27T05:46:37.000Z,15073.0
2022-11-27T05:47:37.000Z,16000.0
2022-11-27T05:48:37.000Z,16000.0
2022-11-27T05:49:36.000Z,16000.0
2022-11-27T05:50:37.000Z,16000.0
2022-11-27T05:51:37.000Z,16000.0
2022-11-27T05:52:36.000Z,16000.0
2022-11-27T05:53:37.000Z,16000.0
2022-11-27T05:54:37.000Z,16000.0
2022-11-27T05:55:36.000Z,16000.0
2022-11-27T05:56:37.000Z,16000.0
2022-11-27T05:57:37.000Z,16000.0
2022-11-27T05:58:37.000Z,16000.0
2022-11-27T05:59:37.000Z,16000.0
2022-11-27T06:00:36.000Z,16000.0
2022-11-27T06:01:37.000Z,16000.0
2022-11-27T06:02:37.000Z,16000.0
2022-11-27T06:03:36.000Z,16000.0
2022-11-27T06:04:37.000Z,16000.0
2022-11-27T06:05:37.000Z,16000.0
2022-11-27T06:06:37.000Z,16000.0
2022-11-27T06:07:37.000Z,16000.0
2022-11-27T06:08:36.000Z,16000.0
2022-11-27T06:09:37.000Z,16000.0
2022-11-27T06:10:37.000Z,16000.0
2022-11-27T06:11:37.000Z,16000.0
2022-11-27T06:12:37.000Z,16000.0
2022-11-27T06:13:38.000Z,16000.0
2022-11-27T06:14:37.000Z,16000.0
2022-11-27T06:15:37.000Z,16000.0
2022-11-27T06:16:36.000Z,16000.0
2022-11-27T06:17:37.000Z,16000.0
2022-11-27T06:18:37.000Z,16000.0
2022-11-27T06:19:37.000Z,16000.0
2022-11-27T06:20:37.000Z,16000.0
2022-11-27T06:21:36.000Z,16000.0
2022-11-27T06:22:37.000Z,16000.0
2022-11-27T06:23:37.000Z,16000.0
2022-11-27T06:24:37.000Z,16000.0
2022-11-27T06:25:37.000Z,16000.0
2022-11-27T06:26:38.000Z,16000.0
2022-11-27T06:27:37.000Z,16000.0
2022-11-27T06:28:37.000Z,16000.0
2022-11-27T06:29:36.000Z,16000.0
2022-11-27T06:30:37.000Z,16000.0
2022-11-27T06:31:37.000Z,16000.0
2022-11-27T06:32:37.000Z,16000.0
2022-11-27T06:33:37.000Z,16000.0
2022-11-27T06:34:36.000Z,16000.0
2022-11-27T06:35:37.000Z,16000.0
2022-11-27T06:36:37.000Z,16000.0
2022-11-27T06:37:37.000Z,16000.0
2022-11-27T06:38:37.000Z,16000.0
2022-11-27T06:39:38.000Z,16000.0
2022-11-27T06:40:37.000Z,16000.0
2022-11-27T06:41:37.000Z,16000.0
2022-11-27T06:42:36.000Z,16000.0
2022-11-27T06:43:37.000Z,16000.0
2022-11-27T06:44:37.000Z,16000.0
2022-11-27T06:45:37.000Z,16000.0
2022-11-27T06:46:37.000Z,16000.0
2022-11-27T06:47:36.000Z,16000.0
2022-11-27T06:48:37.000Z,16000.0
2022-11-27T06:49:37.000Z,16000.0
2022-11-27T06:50:37.000Z,16000.0
2022-11-27T06:51:37.000Z,16000.0
2022-11-27T06:52:37.000Z,16000.0
2022-11-27T06:53:37.000Z,16000.0
2022-11-27T06:54:37.000Z,16000.0
2022-11-27T06:55:37.000Z,16000.0
2022-11-27T06:56:37.000Z,16000.0
2022-11-27T06:57:37.000Z,16000.0
2022-11-27T06:58:36.000Z,16000.0
2022-11-27T06:59:37.000Z,16000.0
2022-11-27T07:00:37.000Z,16000.0
2022-11-27T07:01:37.000Z,16000.0
2022-11-27T07:02:37.000Z,16000.0
2022-11-27T07:03:38.000Z,16000.0
2022-11-27T07:04:37.000Z,16000.0
2022-11-27T07:05:37.000Z,16000.0
2022-11-27T07:06:36.000Z,16000.0
2022-11-27T07:07:37.000Z,16000.0
2022-11-27T07:08:37.000Z,16000.0
2022-11-27T07:09:37.000Z,16000.0
2022-11-27T07:10:37.000Z,16000.0
2022-11-27T07:11:36.000Z,16000.0
2022-11-27T07:12:37.000Z,16000.0
2022-11-27T07:13:37.000Z,16000.0
2022-11-27T07:14:37.000Z,16000.0
2022-11-27T07:15:37.000Z,16000.0
2022-11-27T07:16:37.000Z,16000.0
2022-11-27T07:17:37.000Z,16000.0
2022-11-27T07:18:37.000Z,16000.0
2022-11-27T07:19:36.000Z,16000.0
2022-11-27T07:20:37.000Z,16000.0
2022-11-27T07:21:37.000Z,16000.0
2022-11-27T07:22:37.000Z,16000.0
2022-11-27T07:23:37.000Z,16000.0
2022-11-27T07:24:36.000Z,16000.0
2022-11-27T07:25:37.000Z,16000.0
2022-11-27T07:26:37.000Z,16000.0
2022-11-27T07:27:36.000Z,16000.0
2022-11-27T07:28:37.000Z,16000.0
2022-11-27T07:29:37.000Z,16000.0
2022-11-27T07:30:37.000Z,16000.0
2022-11-27T07:31:37.000Z,16000.0
2022-11-27T07:32:36.000Z,16000.0
2022-11-27T07:33:37.000Z,16000.0
2022-11-27T07:34:37.000Z,16000.0
2022-11-27T07:35:37.000Z,16000.0
2022-11-27T07:36:37.000Z,16000.0
2022-11-27T07:37:38.000Z,16000.0
2022-11-27T07:38:37.000Z,16000.0
2022-11-27T07:39:37.000Z,16000.0
2022-11-27T07:40:36.000Z,16000.0
2022-11-27T07:41:37.000Z,16000.0
2022-11-27T07:42:37.000Z,16000.0
2022-11-27T07:43:37.000Z,16000.0
2022-11-27T07:44:37.000Z,16000.0
2022-11-27T07:45:36.000Z,16000.0
2022-11-27T07:46:37.000Z,16000.0
2022-11-27T07:47:37.000Z,16000.0
2022-11-27T07:48:37.000Z,16000.0
2022-11-27T07:49:37.000Z,16000.0
2022-11-27T07:50:36.000Z,16000.0
2022-11-27T07:51:37.000Z,16000.0
2022-11-27T07:52:37.000Z,16000.0
2022-11-27T07:53:36.000Z,16000.0
2022-11-27T07:54:37.000Z,16000.0
2022-11-27T07:55:37.000Z,16000.0
2022-11-27T07:56:36.000Z,16000.0
2022-11-27T07:57:37.000Z,16000.0
2022-11-27T07:58:37.000Z,16000.0
2022-11-27T07:59:37.000Z,16000.0
2022-11-27T08:00:37.000Z,16000.0
2022-11-27T08:01:36.000Z,16000.0
2022-11-27T08:02:37.000Z,16000.0
2022-11-27T08:03:37.000Z,16000.0
2022-11-27T08:04:36.000Z,16000.0
2022-11-27T08:05:37.000Z,16000.0
2022-11-27T08:06:37.000Z,16000.0
2022-11-27T08:07:37.000Z,16000.0
2022-11-27T08:08:37.000Z,16000.0
2022-11-27T08:09:36.000Z,16000.0
2022-11-27T08:10:37.000Z,16000.0
2022-11-27T08:11:37.000Z,16000.0
2022-11-27T08:12:37.000Z,16000.0
2022-11-27T08:13:37.000Z,16000.0
2022-11-27T08:14:38.000Z,16000.0
2022-11-27T08:15:37.000Z,16000.0
2022-11-27T08:16:37.000Z,16000.0
2022-11-27T08:17:36.000Z,16000.0
2022-11-27T08:18:37.000Z,16000.0
2022-11-27T08:19:37.000Z,16000.0
2022-11-27T08:20:37.000Z,16000.0
2022-11-27T08:21:37.000Z,16000.0
2022-11-27T08:22:36.000Z,16000.0
2022-11-27T08:23:37.000Z,16000.0
2022-11-27T08:24:37.000Z,16000.0
2022-11-27T08:25:37.000Z,16000.0
2022-11-27T08:26:37.000Z,16000.0
2022-11-27T08:27:38.000Z,16000.0
2022-11-27T08:28:37.000Z,16000.0
2022-11-27T08:29:37.000Z,16000.0
2022-11-27T08:30:36.000Z,16000.0
2022-11-27T08:31:37.000Z,16000.0
2022-11-27T08:32:37.000Z,16000.0
2022-11-27T08:33:37.000Z,16000.0
2022-11-27T08:34:37.000Z,16000.0
2022-11-27T08:35:36.000Z,16000.0
2022-11-27T08:36:37.000Z,16000.0
2022-11-27T08:37:37.000Z,16000.0
2022-11-27T08:38:37.000Z,16000.0
2022-11-27T08:39:37.000Z,16000.0
2022-11-27T08:40:38.000Z,16000.0
2022-11-27T08:41:37.000Z,16000.0
2022-11-27T08:42:37.000Z,16000.0
2022-11-27T08:43:36.000Z,16000.0
2022-11-27T08:44:37.000Z,16000.0
2022-11-27T08:45:37.000Z,16000.0
2022-11-27T08:46:37.000Z,16000.0
2022-11-27T08:47:37.000Z,16000.0
2022-11-27T08:48:36.000Z,16000.0
2022-11-27T08:49:37.000Z,16000.0
2022-11-27T08:50:37.000Z,16000.0
2022-11-27T08:51:36.000Z,16000.0
2022-11-27T08:52:37.000Z,16000.0
2022-11-27T08:53:37.000Z,16000.0
2022-11-27T08:54:36.000Z,16000.0
2022-11-27T08:55:37.000Z,16000.0
2022-11-27T08:56:37.000Z,16000.0
2022-11-27T08:57:37.000Z,16000.0
2022-11-27T08:58:37.000Z,16000.0
2022-11-27T08:59:36.000Z,16000.0
2022-11-27T09:00:37.000Z,16000.0
2022-11-27T09:01:37.000Z,16000.0
2022-11-27T09:02:37.000Z,16000.0
2022-11-27T09:03:37.000Z,16000.0
2022-11-27T09:04:38.000Z,16000.0
2022-11-27T09:05:37.000Z,16000.0
2022-11-27T09:06:37.000Z,16000.0
2022-11-27T09:07:36.000Z,16000.0
2022-11-27T09:08:37.000Z,16000.0
2022-11-27T09:09:37.000Z,16000.0
2022-11-27T09:10:37.000Z,16000.0
2022-11-27T09:11:37.000Z,16000.0
2022-11-27T09:12:36.000Z,16000.0
2022-11-27T09:13:37.000Z,16000.0
2022-11-27T09:14:37.000Z,16000.0
2022-11-27T09:15:37.000Z,16000.0
2022-11-27T09:16:37.000Z,16000.0
2022-11-27T09:17:37.000Z,16000.0
2022-11-27T09:18:37.000Z,16000.0
2022-11-27T09:19:37.000Z,16000.0
2022-11-27T09:20:36.000Z,16000.0
2022-11-27T09:21:37.000Z,16000.0
2022-11-27T09:22:37.000Z,16000.0
2022-11-27T09:23:37.000Z,16000.0
2022-11-27T09:24:37.000Z,16000.0
2022-11-27T09:25:36.000Z,16000.0
2022-11-27T09:26:37.000Z,16000.0
2022-11-27T09:27:37.000Z,16000.0
2022-11-27T09:28:36.000Z,16000.0
2022-11-27T09:29:37.000Z,16000.0
2022-11-27T09:30:38.000Z,16000.0
2022-11-27T09:31:37.000Z,16000.0
2022-11-27T09:32:37.000Z,16000.0
2022-11-27T09:33:36.000Z,16000.0
2022-11-27T09:34:37.000Z,16000.0
2022-11-27T09:35:37.000Z,16000.0
2022-11-27T09:36:37.000Z,16000.0
2022-11-27T09:37:37.000Z,16000.0
2022-11-27T09:38:36.000Z,16000.0
2022-11-27T09:39:37.000Z,16000.0
2022-11-27T09:40:37.000Z,16000.0
2022-11-27T09:41:37.000Z,16000.0
2022-11-27T09:42:37.000Z,16000.0
2022-11-27T09:43:37.000Z,16000.0
2022-11-27T09:44:37.000Z,16000.0
2022-11-27T09:45:37.000Z,16000.0
2022-11-27T09:46:36.000Z,16000.0
2022-11-27T09:47:37.000Z,16000.0
2022-11-27T09:48:37.000Z,16000.0
2022-11-27T09:49:37.000Z,16000.0
2022-11-27T09:50:37.000Z,16000.0
2022-11-27T09:51:37.000Z,16000.0
2022-11-27T09:52:37.000Z,16000.0
2022-11-27T09:53:37.000Z,16000.0
2022-11-27T09:54:38.000Z,16000.0
2022-11-27T09:55:37.000Z,16000.0
2022-11-27T09:56:37.000Z,16000.0
2022-11-27T09:57:36.000Z,16000.0
2022-11-27T09:58:37.000Z,16000.0
2022-11-27T09:59:37.000Z,16000.0
2022-11-27T10:00:37.000Z,16000.0
2022-11-27T10:01:37.000Z,16000.0
2022-11-27T10:02:38.000Z,16000.0
2022-11-27T10:03:37.000Z,16000.0
2022-11-27T10:04:37.000Z,16000.0
2022-11-27T10:05:36.000Z,16000.0
2022-11-27T10:06:37.000Z,16000.0
2022-11-27T10:07:37.000Z,16000.0
2022-11-27T10:08:37.000Z,16000.0
2022-11-27T10:09:37.000Z,16000.0
2022-11-27T10:10:36.000Z,16000.0
2022-11-27T10:11:37.000Z,16000.0
2022-11-27T10:12:37.000Z,16000.0
2022-11-27T10:13:37.000Z,16000.0
2022-11-27T10:14:37.000Z,16000.0
2022-11-27T10:15:38.000Z,16000.0
2022-11-27T10:16:37.000Z,16000.0
2022-11-27T10:17:37.000Z,16000.0
2022-11-27T10:18:36.000Z,16000.0
2022-11-27T10:19:37.000Z,16000.0
2022-11-27T10:20:37.000Z,16000.0
2022-11-27T10:21:37.000Z,16000.0
2022-11-27T10:22:37.000Z,16000.0
2022-11-27T10:23:36.000Z,16000.0
2022-11-27T10:24:37.000Z,16000.0
2022-11-27T10:25:37.000Z,16000.0
2022-11-27T10:26:37.000Z,16000.0
2022-11-27T10:27:37.000Z,16000.0
2022-11-27T10:28:37.000Z,16000.0
2022-11-27T10:29:37.000Z,16000.0
2022-11-27T10:30:37.000Z,16000.0
2022-11-27T10:31:36.000Z,16000.0
2022-11-27T10:32:37.000Z,16000.0
2022-11-27T10:33:37.000Z,16000.0
2022-11-27T10:34:37.000Z,16000.0
2022-11-27T10:35:37.000Z,16000.0
2022-11-27T10:36:36.000Z,16000.0
2022-11-27T10:37:37.000Z,16000.0
2022-11-27T10:38:37.000Z,16000.0
2022-11-27T10:39:36.000Z,16000.0
2022-11-27T10:40:37.000Z,16000.0
2022-11-27T10:41:38.000Z,16000.0
2022-11-27T10:42:37.000Z,16000.0
2022-11-27T10:43:37.000Z,16000.0
2022-11-27T10:44:36.000Z,16000.0
2022-11-27T10:45:37.000Z,16000.0
2022-11-27T10:46:37.000Z,16000.0
2022-11-27T10:47:37.000Z,16000.0
2022-11-27T10:48:37.000Z,16000.0
2022-11-27T10:49:36.000Z,16000.0
2022-11-27T10:50:37.000Z,16000.0
2022-11-27T10:51:37.000Z,16000.0
2022-11-27T10:52:36.000Z,16000.0
2022-11-27T10:53:37.000Z,16000.0
2022-11-27T10:54:37.000Z,16000.0
2022-11-27T10:55:36.000Z,16000.0
2022-11-27T10:56:37.000Z,16000.0
2022-11-27T10:57:37.000Z,16000.0
2022-11-27T10:58:37.000Z,16000.0
2022-11-27T10:59:37.000Z,16000.0
2022-11-27T11:00:38.000Z,16000.0
2022-11-27T11:01:37.000Z,16000.0
2022-11-27T11:02:37.000Z,16000.0
2022-11-27T11:03:36.000Z,16000.0
2022-11-27T11:04:37.000Z,16000.0
2022-11-27T11:05:37.000Z,16000.0
2022-11-27T11:06:37.000Z,16000.0
2022-11-27T11:07:37.000Z,16000.0
2022-11-27T11:08:36.000Z,16000.0
2022-11-27T11:09:37.000Z,16000.0
2022-11-27T11:10:37.000Z,16000.0
2022-11-27T11:11:37.000Z,16000.0
2022-11-27T11:12:37.000Z,16000.0
2022-11-27T11:13:38.000Z,16000.0
2022-11-27T11:14:37.000Z,16000.0
2022-11-27T11:15:37.000Z,16000.0
2022-11-27T11:16:36.000Z,16000.0
2022-11-27T11:17:37.000Z,16000.0
2022-11-27T11:18:37.000Z,16000.0
2022-11-27T11:19:37.000Z,16000.0
2022-11-27T11:20:37.000Z,16000.0
2022-11-27T11:21:36.000Z,16000.0
2022-11-27T11:22:37.000Z,16000.0
2022-11-27T11:23:37.000Z,16000.0
2022-11-27T11:24:37.000Z,16000.0
2022-11-27T11:25:37.000Z,16000.0
2022-11-27T11:26:38.000Z,16000.0
2022-11-27T11:27:37.000Z,16000.0
2022-11-27T11:28:37.000Z,16000.0
2022-11-27T11:29:36.000Z,16000.0
2022-11-27T11:30:37.000Z,16000.0
2022-11-27T11:31:37.000Z,16000.0
2022-11-27T11:32:37.000Z,16000.0
2022-11-27T11:33:37.000Z,16000.0
2022-11-27T11:34:36.000Z,16000.0
2022-11-27T11:35:37.000Z,16000.0
2022-11-27T11:36:37.000Z,16000.0
2022-11-27T11:37:37.000Z,16000.0
2022-11-27T11:38:37.000Z,16000.0
2022-11-27T11:39:37.000Z,16000.0
2022-11-27T11:40:37.000Z,16000.0
2022-11-27T11:41:37.000Z,16000.0
2022-11-27T11:42:36.000Z,16000.0
2022-11-27T11:43:37.000Z,16000.0
2022-11-27T11:44:37.000Z,16000.0
2022-11-27T11:45:37.000Z,16000.0
2022-11-27T11:46:37.000Z,16000.0
2022-11-27T11:47:36.000Z,16000.0
2022-11-27T11:48:37.000Z,16000.0
2022-11-27T11:49:37.000Z,16000.0
2022-11-27T11:50:36.000Z,16000.0
2022-11-27T11:51:37.000Z,16000.0
2022-11-27T11:52:37.000Z,16000.0
2022-11-27T11:53:36.000Z,16000.0
2022-11-27T11:54:37.000Z,16000.0
2022-11-27T11:55:37.000Z,16000.0
2022-11-27T11:56:37.000Z,16000.0
2022-11-27T11:57:37.000Z,16000.0
2022-11-27T11:58:36.000Z,16000.0
2022-11-27T11:59:37.000Z,16000.0
2022-11-27T12:00:37.000Z,16000.0
2022-11-27T12:01:36.000Z,16000.0
2022-11-27T12:02:37.000Z,16000.0
2022-11-27T12:03:38.000Z,16000.0
2022-11-27T12:04:37.000Z,16000.0
2022-11-27T12:05:37.000Z,16000.0
2022-11-27T12:06:36.000Z,16000.0